Time;durP1;ratioP1;P1;durP2;ratioP2;P2;SDS_P1;SDS_P2;PMS_P1;PMS_P2;Temp;Humidity;BMP_temperature;BMP_pressure;BME280_temperature;BME280_humidity;BME280_pressure;Samples;Min_cycle;Max_cycle;Signal;HPM_P1;HPM_P2
2022/04/22 00:00:38;;;;;;;79.37;38.40;;;6.10;99.90;;;;;;4447821;28;656521;-68
2022/04/22 00:03:27;;;;;;;74.20;37.07;;;6.10;99.90;;;;;;4448306;28;657008;-68
2022/04/22 00:06:14;;;;;;;69.23;34.50;;;6.10;99.90;;;;;;4460482;28;657337;-68
2022/04/22 00:09:02;;;;;;;65.33;34.10;;;6.10;99.90;;;;;;4430059;28;656395;-68
2022/04/22 00:11:49;;;;;;;84.17;40.67;;;6.00;99.90;;;;;;4458142;28;656402;-68
2022/04/22 00:14:36;;;;;;;78.03;38.17;;;6.00;99.90;;;;;;4428822;28;656748;-68
2022/04/22 00:17:24;;;;;;;66.57;36.10;;;6.00;99.90;;;;;;4454627;28;656716;-68
2022/04/22 00:20:13;;;;;;;63.47;32.10;;;6.00;99.90;;;;;;4437630;28;658872;-68
2022/04/22 00:23:00;;;;;;;65.73;34.63;;;6.00;99.90;;;;;;4433442;28;656638;-68
2022/04/22 00:25:48;;;;;;;70.83;35.97;;;5.90;99.90;;;;;;4446394;28;657908;-68
2022/04/22 00:28:35;;;;;;;75.97;37.70;;;5.90;99.90;;;;;;4441889;28;656278;-68
2022/04/22 00:31:23;;;;;;;68.73;34.03;;;5.90;99.90;;;;;;4454136;28;657459;-68
2022/04/22 00:34:10;;;;;;;62.30;32.73;;;5.90;99.90;;;;;;4447734;28;656972;-68
2022/04/22 00:36:59;;;;;;;57.17;28.83;;;5.80;99.90;;;;;;4453654;28;657803;-68
2022/04/22 00:39:46;;;;;;;57.10;29.23;;;5.80;99.90;;;;;;4432211;28;656603;-68
2022/04/22 00:42:34;;;;;;;56.50;30.20;;;5.90;99.90;;;;;;4450155;28;657183;-68
2022/04/22 00:45:21;;;;;;;58.07;29.97;;;5.90;99.90;;;;;;4433697;28;656747;-68
2022/04/22 00:48:09;;;;;;;61.73;30.93;;;6.00;99.90;;;;;;4453280;28;657274;-68
2022/04/22 00:50:56;;;;;;;50.73;28.27;;;6.00;99.90;;;;;;4429360;28;657089;-67
2022/04/22 00:53:46;;;;;;;48.03;26.03;;;6.00;99.90;;;;;;4449663;28;657331;-68
2022/04/22 00:56:34;;;;;;;48.57;25.80;;;6.00;99.90;;;;;;4427231;28;656850;-68
2022/04/22 00:59:22;;;;;;;43.67;23.63;;;6.00;99.90;;;;;;4434903;28;656752;-68
2022/04/22 01:02:09;;;;;;;47.57;25.00;;;6.00;99.90;;;;;;4453033;28;656899;-68
2022/04/22 01:11:07;;;;;;;40.40;23.13;;;5.80;99.90;;;;;;4411576;28;657264;-68
2022/04/22 01:13:55;;;;;;;42.57;24.17;;;5.90;99.90;;;;;;4447762;28;656673;-68
2022/04/22 01:16:43;;;;;;;53.20;27.17;;;5.90;99.90;;;;;;4452043;28;657432;-68
2022/04/22 01:19:31;;;;;;;49.17;27.10;;;5.90;99.90;;;;;;4440513;28;657613;-68
2022/04/22 01:22:20;;;;;;;43.10;24.53;;;5.90;99.90;;;;;;4444560;28;656481;-68
2022/04/22 01:25:08;;;;;;;53.17;27.15;;;5.90;99.90;;;;;;4419129;28;656726;-68
2022/04/22 01:27:55;;;;;;;55.67;28.07;;;5.90;99.90;;;;;;4414332;28;656973;-68
2022/04/22 01:30:43;;;;;;;51.30;27.80;;;5.90;99.90;;;;;;4440489;28;657820;-68
2022/04/22 01:33:30;;;;;;;52.93;28.03;;;5.90;99.90;;;;;;4432592;28;657088;-68
2022/04/22 01:36:18;;;;;;;49.53;26.90;;;5.90;99.90;;;;;;4438964;28;657878;-68
2022/04/22 01:39:07;;;;;;;51.13;25.90;;;5.90;99.90;;;;;;4443195;28;657379;-68
2022/04/22 01:41:55;;;;;;;46.13;25.30;;;6.00;99.90;;;;;;4450037;28;657848;-68
2022/04/22 01:44:42;;;;;;;43.53;24.13;;;6.00;99.90;;;;;;4430098;28;658163;-68
2022/04/22 01:47:30;;;;;;;43.10;23.53;;;6.00;99.90;;;;;;4450227;28;657023;-68
2022/04/22 01:50:17;;;;;;;39.43;21.53;;;6.00;99.90;;;;;;4430363;28;657087;-68
2022/04/22 01:53:06;;;;;;;38.23;19.90;;;5.90;99.90;;;;;;4451144;28;658183;-68
2022/04/22 01:55:55;;;;;;;36.07;20.87;;;6.00;99.90;;;;;;4427286;28;657177;-67
2022/04/22 01:58:42;;;;;;;34.83;18.90;;;5.90;99.90;;;;;;4427810;28;657239;-68
2022/04/22 02:01:29;;;;;;;34.73;19.13;;;5.90;99.90;;;;;;4456038;28;657055;-68
2022/04/22 02:04:17;;;;;;;37.97;21.53;;;5.80;99.90;;;;;;4432914;28;656773;-68
2022/04/22 02:07:04;;;;;;;38.83;20.60;;;5.90;99.90;;;;;;4449904;28;656306;-68
2022/04/22 02:09:52;;;;;;;37.77;22.47;;;6.00;99.90;;;;;;4429226;28;656762;-68
2022/04/22 02:12:41;;;;;;;36.97;20.47;;;5.90;99.90;;;;;;4452243;28;656457;-68
2022/04/22 02:15:28;;;;;;;39.38;20.88;;;5.90;99.90;;;;;;4425203;28;657361;-68
2022/04/22 02:18:16;;;;;;;38.70;21.23;;;5.90;99.90;;;;;;4432956;28;656435;-67
2022/04/22 02:21:03;;;;;;;39.03;21.57;;;5.90;99.90;;;;;;4451067;28;657630;-68
2022/04/22 02:23:51;;;;;;;37.17;20.97;;;5.90;99.90;;;;;;4431177;28;656486;-67
2022/04/22 02:29:41;;;;;;;36.20;20.47;;;5.90;99.90;;;;;;4437416;28;657583;-68
2022/04/22 02:32:28;;;;;;;38.33;21.70;;;5.90;99.90;;;;;;4427305;28;657012;-68
2022/04/22 02:35:15;;;;;;;43.37;21.60;;;5.90;99.90;;;;;;4429482;28;656808;-68
2022/04/22 02:38:03;;;;;;;42.57;22.40;;;5.90;99.90;;;;;;4446285;28;658320;-68
2022/04/22 02:47:02;;;;;;;37.83;22.90;;;6.00;99.90;;;;;;4411637;28;656773;-68
2022/04/22 02:49:49;;;;;;;38.70;21.83;;;6.00;99.90;;;;;;4446520;28;656394;-68
2022/04/22 02:52:37;;;;;;;36.83;21.07;;;6.00;99.90;;;;;;4427713;28;657070;-68
2022/04/22 02:55:24;;;;;;;39.37;18.73;;;5.90;99.90;;;;;;4451031;28;656518;-68
2022/04/22 02:58:11;;;;;;;29.13;17.93;;;5.90;99.90;;;;;;4422008;28;656491;-68
2022/04/22 03:00:59;;;;;;;30.37;17.97;;;5.80;99.90;;;;;;4452131;28;657963;-68
2022/04/22 03:03:48;;;;;;;34.30;19.17;;;5.80;99.90;;;;;;4429799;28;656683;-67
2022/04/22 03:06:36;;;;;;;31.57;18.47;;;5.80;99.90;;;;;;4425307;28;656503;-68
2022/04/22 03:09:23;;;;;;;31.37;17.53;;;5.70;99.90;;;;;;4454953;28;657805;-68
2022/04/22 03:12:13;;;;;;;31.67;18.40;;;5.70;99.90;;;;;;4435551;28;656660;-68
2022/04/22 03:15:00;;;;;;;39.10;21.25;;;5.70;99.90;;;;;;4436498;28;656730;-68
2022/04/22 03:17:49;;;;;;;38.67;21.60;;;5.80;99.90;;;;;;4450159;28;657851;-68
2022/04/22 03:20:38;;;;;;;37.37;20.53;;;5.80;99.90;;;;;;4431017;28;656945;-68
2022/04/22 03:23:25;;;;;;;38.57;21.83;;;5.80;99.90;;;;;;4450208;28;656803;-68
2022/04/22 03:26:13;;;;;;;38.80;21.93;;;5.80;99.90;;;;;;4456085;28;657919;-68
2022/04/22 03:29:00;;;;;;;43.53;22.30;;;5.80;99.90;;;;;;4447960;28;657329;-67
2022/04/22 03:31:48;;;;;;;39.60;23.67;;;5.90;99.90;;;;;;4454021;28;657691;-68
2022/04/22 03:34:35;;;;;;;42.07;22.40;;;5.90;99.90;;;;;;4437508;28;656962;-67
2022/04/22 03:37:24;;;;;;;40.67;22.77;;;5.80;99.90;;;;;;4449517;28;658064;-68
2022/04/22 03:40:12;;;;;;;37.30;20.80;;;5.80;99.90;;;;;;4430496;28;656334;-67
2022/04/22 03:42:59;;;;;;;37.90;19.97;;;5.80;99.90;;;;;;4453969;28;657642;-68
2022/04/22 03:45:46;;;;;;;43.33;22.83;;;5.80;99.90;;;;;;4435686;28;656546;-68
2022/04/22 03:48:34;;;;;;;42.50;22.67;;;5.80;99.90;;;;;;4446129;28;657031;-68
2022/04/22 03:51:21;;;;;;;48.60;23.77;;;5.80;99.90;;;;;;4437896;28;657260;-67
2022/04/22 03:54:10;;;;;;;50.23;26.70;;;5.90;99.90;;;;;;4457812;28;657427;-68
2022/04/22 04:00:16;;;;;;;41.73;22.07;;;5.90;99.90;;;;;;4368609;28;656420;-68
2022/04/22 04:03:04;;;;;;;38.90;22.13;;;5.90;99.90;;;;;;4388247;28;656707;-67
2022/04/22 04:05:51;;;;;;;47.20;24.40;;;5.90;99.90;;;;;;4392774;28;657226;-68
2022/04/22 04:08:38;;;;;;;49.60;24.40;;;5.90;99.90;;;;;;4440098;28;658169;-68
2022/04/22 04:17:38;;;;;;;49.93;25.93;;;6.10;99.90;;;;;;4420980;28;656832;-68
2022/04/22 04:23:30;;;;;;;38.63;21.90;;;6.30;99.90;;;;;;4410970;28;656945;-68
2022/04/22 04:26:18;;;;;;;37.87;21.80;;;6.20;99.90;;;;;;4435730;28;657899;-68
2022/04/22 04:29:09;;;;;;;42.13;21.60;;;6.20;99.90;;;;;;4428161;28;656582;-68
2022/04/22 04:31:56;;;;;;;38.67;21.33;;;6.20;99.90;;;;;;4427286;28;656974;-67
2022/04/22 04:34:44;;;;;;;38.67;20.87;;;6.30;99.90;;;;;;4446116;28;657132;-68
2022/04/22 04:37:31;;;;;;;40.87;22.43;;;6.30;99.90;;;;;;4419114;28;656467;-68
2022/04/22 04:40:18;;;;;;;39.72;21.98;;;6.30;99.90;;;;;;4439885;28;657750;-68
2022/04/22 04:43:06;;;;;;;45.70;23.80;;;6.40;99.90;;;;;;4418370;28;656975;-67
2022/04/22 04:45:55;;;;;;;43.37;22.87;;;6.50;99.90;;;;;;4447620;28;656276;-68
2022/04/22 04:48:42;;;;;;;44.70;24.35;;;6.60;99.90;;;;;;4428425;28;656817;-68
2022/04/22 04:51:30;;;;;;;43.20;23.87;;;6.70;99.90;;;;;;4456390;28;656407;-68
2022/04/22 04:54:18;;;;;;;46.40;24.47;;;6.80;99.90;;;;;;4444292;28;657856;-68
2022/04/22 04:57:06;;;;;;;44.20;23.37;;;6.90;99.90;;;;;;4440383;28;656759;-68
2022/04/22 04:59:54;;;;;;;40.03;22.00;;;6.90;99.90;;;;;;4445232;28;657579;-67
2022/04/22 05:02:42;;;;;;;37.53;21.63;;;6.90;99.90;;;;;;4425065;28;657167;-68
2022/04/22 05:05:30;;;;;;;41.90;22.47;;;6.90;99.90;;;;;;4448038;28;656306;-68
2022/04/22 05:08:18;;;;;;;40.90;22.20;;;7.10;99.90;;;;;;4457105;28;657217;-68
2022/04/22 05:11:05;;;;;;;41.20;21.03;;;7.10;99.90;;;;;;4441517;28;656448;-68
2022/04/22 05:13:53;;;;;;;43.27;22.77;;;7.20;99.90;;;;;;4447092;28;657508;-68
2022/04/22 05:16:40;;;;;;;44.10;23.33;;;7.30;99.90;;;;;;4437343;28;657260;-68
2022/04/22 05:19:29;;;;;;;43.53;23.90;;;7.40;99.90;;;;;;4455843;28;657360;-68
2022/04/22 05:22:16;;;;;;;46.15;23.98;;;7.50;99.90;;;;;;4435224;28;656570;-68
2022/04/22 05:25:05;;;;;;;47.47;25.10;;;7.50;99.90;;;;;;4450524;28;657361;-68
2022/04/22 05:27:52;;;;;;;47.77;24.03;;;7.50;99.90;;;;;;4427564;28;658319;-68
2022/04/22 05:33:44;;;;;;;53.10;27.07;;;7.70;99.90;;;;;;4429165;28;656344;-68
2022/04/22 05:36:33;;;;;;;47.40;25.67;;;7.80;99.90;;;;;;4428254;28;656522;-68
2022/04/22 05:39:20;;;;;;;44.53;25.30;;;7.70;99.90;;;;;;4430469;28;657114;-68
2022/04/22 05:42:08;;;;;;;41.27;22.37;;;7.80;99.90;;;;;;4450672;28;658392;-68
2022/04/22 05:44:56;;;;;;;56.23;26.97;;;7.90;99.90;;;;;;4429043;28;656264;-67
2022/04/22 05:47:43;;;;;;;50.57;26.03;;;7.90;99.90;;;;;;4449254;28;657326;-68
2022/04/22 05:50:30;;;;;;;46.73;25.33;;;8.00;99.90;;;;;;4426333;28;656623;-68
2022/04/22 05:53:19;;;;;;;46.70;23.30;;;8.10;99.90;;;;;;4452733;28;658387;-68
2022/04/22 05:56:06;;;;;;;48.25;25.40;;;8.20;99.90;;;;;;4430844;28;656726;-67
2022/04/22 05:58:54;;;;;;;49.07;24.47;;;8.40;99.90;;;;;;4445703;28;657208;-68
2022/04/22 06:01:41;;;;;;;47.13;24.03;;;8.40;99.90;;;;;;4424659;28;657516;-68
2022/04/22 06:04:28;;;;;;;47.60;25.17;;;8.50;99.90;;;;;;4443761;28;657632;-67
2022/04/22 06:07:16;;;;;;;43.97;22.90;;;8.60;99.90;;;;;;4423922;28;656720;-67
2022/04/22 06:13:10;;;;;;;39.77;21.90;;;8.80;99.90;;;;;;4412131;28;657449;-68
2022/04/22 06:15:58;;;;;;;41.00;21.67;;;9.00;99.90;;;;;;4451345;28;656539;-68
2022/04/22 06:18:45;;;;;;;39.93;20.97;;;9.10;99.90;;;;;;4426451;28;656674;-68
2022/04/22 06:21:33;;;;;;;36.70;20.20;;;9.20;99.90;;;;;;4450014;28;657261;-68
2022/04/22 06:24:20;;;;;;;39.60;19.87;;;9.20;99.90;;;;;;4438759;28;657038;-68
2022/04/22 06:27:10;;;;;;;36.60;20.40;;;9.20;99.90;;;;;;4447333;28;657407;-67
2022/04/22 06:29:57;;;;;;;37.17;20.13;;;9.30;99.90;;;;;;4433411;28;658450;-68
2022/04/22 06:32:47;;;;;;;34.93;19.00;;;9.40;99.90;;;;;;4437308;28;657790;-68
2022/04/22 06:38:43;;;;;;;35.30;18.93;;;9.60;99.90;;;;;;4400846;28;656487;-68
2022/04/22 06:47:49;;;;;;;31.17;17.93;;;10.00;99.90;;;;;;4428488;28;656774;-67
2022/04/22 06:50:37;;;;;;;29.20;16.63;;;10.30;99.90;;;;;;4424830;28;658797;-68
2022/04/22 06:53:24;;;;;;;29.97;17.13;;;10.40;99.90;;;;;;4447956;28;657137;-68
2022/04/22 06:56:13;;;;;;;39.93;17.57;;;10.40;99.90;;;;;;4425684;28;657611;-68
2022/04/22 06:59:01;;;;;;;30.92;17.80;;;10.60;99.90;;;;;;4422141;28;657954;-68
2022/04/22 07:02:08;;;;;;;35.57;17.53;;;10.70;99.90;;;;;;4442963;28;658812;-68
2022/04/22 07:04:56;;;;;;;29.60;17.25;;;10.60;99.90;;;;;;4394318;28;658139;-67
2022/04/22 07:07:47;;;;;;;32.13;16.27;;;10.50;99.90;;;;;;4444279;28;658587;-68
2022/04/22 07:10:35;;;;;;;33.90;17.17;;;10.70;99.90;;;;;;4419631;28;657668;-68
2022/04/22 07:13:22;;;;;;;31.23;18.00;;;10.70;99.90;;;;;;4418098;28;659398;-68
2022/04/22 07:16:10;;;;;;;35.47;18.43;;;10.60;99.90;;;;;;4444187;28;658083;-68
2022/04/22 07:19:00;;;;;;;36.97;19.20;;;10.50;99.90;;;;;;4445462;28;658754;-68
2022/04/22 07:21:48;;;;;;;37.73;21.73;;;10.40;99.90;;;;;;4426885;28;659097;-67
2022/04/22 07:24:36;;;;;;;43.50;21.17;;;10.30;99.90;;;;;;4426242;28;657660;-67
2022/04/22 07:27:28;;;;;;;43.97;23.27;;;10.00;99.90;;;;;;4444047;28;658682;-67
2022/04/22 07:30:16;;;;;;;41.73;22.03;;;10.00;99.90;;;;;;4402437;28;657551;-68
2022/04/22 07:33:04;;;;;;;41.43;23.20;;;10.10;99.90;;;;;;4445459;28;658291;-68
2022/04/22 07:36:02;;;;;;;42.33;22.83;;;10.00;99.90;;;;;;4419332;28;658071;-68
2022/04/22 07:38:49;;;;;;;46.33;22.87;;;10.00;99.90;;;;;;4420298;28;657691;-67
2022/04/22 07:41:38;;;;;;;44.83;23.17;;;10.10;99.90;;;;;;4425181;28;658357;-68
2022/04/22 07:47:31;;;;;;;42.40;21.77;;;10.60;99.90;;;;;;4419493;28;657994;-68
2022/04/22 07:50:19;;;;;;;39.73;21.40;;;10.80;99.90;;;;;;4448114;28;658866;-68
2022/04/22 07:53:07;;;;;;;45.67;22.67;;;10.90;99.90;;;;;;4425058;28;657846;-68
2022/04/22 08:03:38;;;;;;;47.50;22.23;;;11.30;99.90;;;;;;4376057;28;658095;-68
2022/04/22 08:06:25;;;;;;;45.90;20.33;;;11.30;99.90;;;;;;4376921;28;657886;-68
2022/04/22 08:09:14;;;;;;;26.30;14.37;;;11.30;99.90;;;;;;4395753;28;658841;-68
2022/04/22 08:12:01;;;;;;;37.70;17.40;;;11.50;99.90;;;;;;4383660;28;658105;-68
2022/04/22 08:14:50;;;;;;;33.50;17.87;;;11.60;99.90;;;;;;4405249;28;659192;-68
2022/04/22 08:17:39;;;;;;;28.10;16.53;;;11.80;99.90;;;;;;4424407;28;659113;-67
2022/04/22 08:20:26;;;;;;;31.43;16.47;;;11.70;99.90;;;;;;4427417;28;657743;-68
2022/04/22 08:23:13;;;;;;;36.10;18.27;;;11.60;99.90;;;;;;4449877;28;659356;-67
2022/04/22 08:26:02;;;;;;;33.63;15.65;;;11.70;99.90;;;;;;4426806;28;657302;-68
2022/04/22 08:28:49;;;;;;;34.93;15.30;;;11.90;99.90;;;;;;4439586;28;657961;-68
2022/04/22 08:31:36;;;;;;;32.03;16.07;;;12.10;99.90;;;;;;4426149;28;657595;-68
2022/04/22 08:34:23;;;;;;;32.17;16.23;;;12.30;99.90;;;;;;4442090;28;658302;-67
2022/04/22 08:37:10;;;;;;;35.90;16.77;;;11.90;99.90;;;;;;4418136;28;658322;-67
2022/04/22 08:39:58;;;;;;;32.23;16.37;;;12.10;99.90;;;;;;4447039;28;658279;-68
2022/04/22 08:42:49;;;;;;;33.83;16.77;;;12.30;99.90;;;;;;4420362;28;658078;-67
2022/04/22 08:45:36;;;;;;;36.70;18.63;;;12.50;99.90;;;;;;4420628;28;658281;-68
2022/04/22 08:51:28;;;;;;;29.77;16.23;;;12.50;99.90;;;;;;4423156;28;657610;-67
2022/04/22 08:54:16;;;;;;;35.08;17.42;;;12.60;99.90;;;;;;4425632;28;657644;-67
2022/04/22 08:57:04;;;;;;;33.87;17.80;;;12.40;99.90;;;;;;4433554;28;658199;-68
2022/04/22 08:59:52;;;;;;;35.63;17.93;;;12.30;99.90;;;;;;4424940;28;658395;-67
2022/04/22 09:02:40;;;;;;;40.57;19.90;;;12.20;99.90;;;;;;4438914;28;657940;-67
2022/04/22 09:05:29;;;;;;;43.20;19.37;;;12.10;99.90;;;;;;4443351;28;658100;-68
2022/04/22 09:08:16;;;;;;;33.70;18.60;;;12.00;99.90;;;;;;4427289;28;658046;-67
2022/04/22 09:11:04;;;;;;;37.30;17.60;;;11.90;99.90;;;;;;4439360;28;658148;-68
2022/04/22 09:13:51;;;;;;;31.47;17.27;;;12.00;99.90;;;;;;4424105;28;657519;-67
2022/04/22 09:16:41;;;;;;;35.13;17.60;;;12.20;99.90;;;;;;4445881;28;658661;-68
2022/04/22 09:19:35;;;;;;;32.77;18.33;;;12.40;99.90;;;;;;4419480;28;657903;-67
2022/04/22 09:22:22;;;;;;;41.10;19.77;;;12.40;99.90;;;;;;4397315;28;658544;-67
2022/04/22 09:25:10;;;;;;;40.97;20.67;;;12.20;99.90;;;;;;4444268;28;657472;-67
2022/04/22 09:28:07;;;;;;;36.10;20.27;;;12.20;99.90;;;;;;4412580;28;658564;-67
2022/04/22 09:31:01;;;;;;;44.40;20.73;;;12.30;99.90;;;;;;4415029;28;658263;-68
2022/04/22 09:33:50;;;;;;;44.33;22.17;;;12.40;99.90;;;;;;4413782;28;659124;-67
2022/04/22 09:42:47;;;;;;;43.53;21.70;;;12.40;99.90;;;;;;4422634;28;657711;-67
2022/04/22 09:45:35;;;;;;;44.17;22.23;;;12.40;99.90;;;;;;4440921;28;658167;-67
2022/04/22 09:48:23;;;;;;;56.07;25.03;;;12.40;99.90;;;;;;4416663;28;658841;-68
2022/04/22 09:51:23;;;;;;;56.93;25.97;;;12.20;99.90;;;;;;4428876;28;657708;-67
2022/04/22 09:54:11;;;;;;;56.87;25.27;;;12.50;99.90;;;;;;4405963;28;657911;-67
2022/04/22 09:57:00;;;;;;;58.00;26.33;;;12.20;99.90;;;;;;4437517;28;658663;-67
2022/04/22 09:59:47;;;;;;;58.13;24.93;;;11.70;99.90;;;;;;4420886;28;660050;-67
2022/04/22 10:02:34;;;;;;;55.93;25.00;;;11.20;99.90;;;;;;4445125;28;658949;-68
2022/04/22 10:05:22;;;;;;;52.15;23.65;;;11.00;99.90;;;;;;4425454;28;659125;-67
2022/04/22 10:08:11;;;;;;;50.67;22.33;;;10.80;99.90;;;;;;4431682;28;658812;-67
2022/04/22 10:10:59;;;;;;;46.10;20.43;;;10.70;99.90;;;;;;4416171;28;659215;-67
2022/04/22 10:13:47;;;;;;;52.28;21.05;;;10.70;99.90;;;;;;4422140;28;658683;-67
2022/04/22 10:16:34;;;;;;;44.67;21.70;;;10.50;99.90;;;;;;4441617;28;658833;-67
2022/04/22 10:19:21;;;;;;;46.80;22.60;;;10.50;99.90;;;;;;4422657;28;659651;-67
2022/04/22 10:22:10;;;;;;;49.13;22.63;;;10.40;99.90;;;;;;4442367;28;660506;-67
2022/04/22 10:24:59;;;;;;;43.30;19.20;;;10.50;99.90;;;;;;4421762;28;659777;-67
2022/04/22 10:27:46;;;;;;;41.33;19.33;;;10.20;99.90;;;;;;4421720;28;658980;-67
2022/04/22 10:30:33;;;;;;;38.83;18.87;;;10.10;99.90;;;;;;4444403;28;659436;-68
2022/04/22 10:33:25;;;;;;;36.65;18.25;;;9.90;99.90;;;;;;4424891;28;659142;-67
2022/04/22 10:36:12;;;;;;;38.07;19.07;;;9.80;99.90;;;;;;4421741;28;658589;-67
2022/04/22 10:39:00;;;;;;;37.23;18.50;;;9.80;99.90;;;;;;4441777;28;657714;-67
2022/04/22 10:41:49;;;;;;;38.10;18.80;;;9.70;99.90;;;;;;4444590;28;657457;-67
2022/04/22 10:47:44;;;;;;;39.07;17.63;;;9.60;99.90;;;;;;4396579;28;658564;-67
2022/04/22 10:50:32;;;;;;;40.07;17.87;;;9.60;99.90;;;;;;4427763;28;657660;-68
2022/04/22 10:53:24;;;;;;;35.03;16.37;;;9.60;99.90;;;;;;4445943;28;657361;-67
2022/04/22 10:56:34;;;;;;;38.20;18.40;;;9.60;99.90;;;;;;4427538;28;658545;-67
2022/04/22 10:59:32;;;;;;;37.33;16.07;;;9.70;99.90;;;;;;4431447;28;658986;-67
2022/04/22 11:02:29;;;;;;;40.77;16.90;;;9.80;99.90;;;;;;4425043;28;657720;-67
2022/04/22 11:05:35;;;;;;;35.67;15.75;;;9.90;99.90;;;;;;4422842;28;657990;-67
2022/04/22 11:08:26;;;;;;;34.63;14.70;;;10.10;99.90;;;;;;4400366;28;658577;-67
2022/04/22 11:11:15;;;;;;;32.77;15.30;;;10.20;99.90;;;;;;4422242;28;658905;-68
2022/04/22 11:14:17;;;;;;;32.73;15.53;;;10.50;99.90;;;;;;4419451;28;659702;-68
2022/04/22 11:17:33;;;;;;;30.17;15.10;;;10.70;99.90;;;;;;4424703;28;659090;-68
2022/04/22 11:20:20;;;;;;;32.17;15.67;;;10.80;99.90;;;;;;4400191;28;659079;-67
2022/04/22 11:23:10;;;;;;;37.37;17.73;;;10.90;99.90;;;;;;4440184;28;660046;-67
2022/04/22 11:25:58;;;;;;;36.20;16.80;;;10.80;99.90;;;;;;4419271;28;659925;-68
2022/04/22 11:28:47;;;;;;;32.83;17.03;;;11.00;99.90;;;;;;4422060;28;658798;-68
2022/04/22 11:31:35;;;;;;;34.63;18.07;;;11.10;99.90;;;;;;4444448;28;659795;-67
2022/04/22 11:34:33;;;;;;;33.47;17.87;;;11.30;99.90;;;;;;4426156;28;660031;-68
2022/04/22 11:37:22;;;;;;;31.83;16.03;;;11.60;99.90;;;;;;4431776;28;658323;-67
2022/04/22 11:40:10;;;;;;;29.23;15.00;;;11.80;99.90;;;;;;4448457;28;658445;-68
2022/04/22 11:42:59;;;;;;;29.47;15.23;;;12.00;99.90;;;;;;4413267;28;659613;-68
2022/04/22 11:45:47;;;;;;;30.40;14.17;;;12.20;99.90;;;;;;4417673;28;658724;-67
2022/04/22 11:48:34;;;;;;;31.20;13.10;;;12.60;99.90;;;;;;4440964;28;659135;-67
2022/04/22 11:51:25;;;;;;;27.73;12.80;;;12.60;99.90;;;;;;4415146;28;659502;-68
2022/04/22 11:54:12;;;;;;;25.67;13.57;;;12.60;99.90;;;;;;4416830;28;660247;-68
2022/04/22 11:56:59;;;;;;;24.60;12.10;;;12.50;99.90;;;;;;4447686;28;658255;-67
2022/04/22 12:05:32;;;;;;;23.55;12.15;;;12.40;99.90;;;;;;4418722;28;658790;-68
2022/04/22 12:05:58;;;;;;;20.73;11.17;;;12.20;99.90;;;;;;4424161;28;659445;-68
2022/04/22 12:08:52;;;;;;;23.03;12.00;;;12.30;99.90;;;;;;4419717;28;658256;-68
2022/04/22 12:11:41;;;;;;;21.37;12.00;;;12.40;99.90;;;;;;4416061;28;659056;-68
2022/04/22 12:14:30;;;;;;;19.90;11.20;;;12.30;99.90;;;;;;4416447;28;659778;-68
2022/04/22 12:17:17;;;;;;;20.40;11.73;;;12.10;99.90;;;;;;4414303;28;661918;-68
2022/04/22 12:20:05;;;;;;;19.67;12.17;;;12.20;99.90;;;;;;4442969;28;658748;-68
2022/04/22 12:22:53;;;;;;;19.33;11.20;;;12.10;99.90;;;;;;4417216;28;659479;-68
2022/04/22 12:25:53;;;;;;;20.40;11.90;;;12.00;99.90;;;;;;4428256;28;659621;-68
2022/04/22 12:28:59;;;;;;;19.83;11.60;;;12.20;99.90;;;;;;4393406;28;658956;-68
2022/04/22 12:31:46;;;;;;;21.93;12.77;;;12.50;99.90;;;;;;4426278;28;658650;-68
2022/04/22 12:34:34;;;;;;;20.77;12.87;;;12.90;99.90;;;;;;4443088;28;658912;-68
2022/04/22 12:37:24;;;;;;;18.03;10.90;;;12.70;99.90;;;;;;4422774;28;658962;-68
2022/04/22 12:40:12;;;;;;;22.23;13.43;;;12.70;99.90;;;;;;4422984;28;658920;-68
2022/04/22 12:43:31;;;;;;;26.63;14.00;;;12.80;99.90;;;;;;4443430;28;658624;-67
2022/04/22 12:52:45;;;;;;;15.97;10.00;;;12.70;99.90;;;;;;4400410;28;659265;-68
2022/04/22 12:55:33;;;;;;;16.27;10.47;;;12.30;99.90;;;;;;4446769;28;659578;-68
2022/04/22 12:58:20;;;;;;;17.80;10.57;;;12.60;99.90;;;;;;4431207;28;658818;-67
2022/04/22 13:01:18;;;;;;;18.37;10.30;;;12.80;99.90;;;;;;4450244;28;659360;-68
2022/04/22 13:04:06;;;;;;;21.53;12.27;;;12.80;99.90;;;;;;4401018;28;658963;-67
2022/04/22 13:06:53;;;;;;;22.33;13.77;;;12.80;99.90;;;;;;4441352;28;659010;-68
2022/04/22 13:09:40;;;;;;;20.13;14.37;;;12.80;99.90;;;;;;4427346;28;659790;-67
2022/04/22 13:12:27;;;;;;;23.50;15.10;;;12.70;99.90;;;;;;4449337;28;659424;-67
2022/04/22 13:15:17;;;;;;;26.33;17.57;;;12.60;99.90;;;;;;4445578;28;658387;-67
2022/04/22 13:18:07;;;;;;;24.07;17.43;;;12.20;99.90;;;;;;4441001;28;658808;-68
2022/04/22 13:20:54;;;;;;;23.67;16.77;;;12.20;99.90;;;;;;4439783;28;659291;-68
2022/04/22 13:23:41;;;;;;;25.60;16.43;;;12.10;99.90;;;;;;4419634;28;659260;-68
2022/04/22 13:26:29;;;;;;;26.60;16.10;;;11.70;99.90;;;;;;4448022;28;659101;-68
2022/04/22 13:29:16;;;;;;;28.27;17.03;;;11.80;99.90;;;;;;4425772;28;658725;-68
2022/04/22 13:32:03;;;;;;;23.77;14.33;;;11.70;99.90;;;;;;4444992;28;658700;-68
2022/04/22 13:34:52;;;;;;;25.13;17.03;;;11.60;99.90;;;;;;4424068;28;658590;-67
2022/04/22 13:37:39;;;;;;;27.05;17.35;;;11.50;99.90;;;;;;4445041;28;659982;-67
2022/04/22 13:40:26;;;;;;;26.83;16.27;;;11.10;99.90;;;;;;4426587;28;658623;-68
2022/04/22 13:43:14;;;;;;;31.10;18.30;;;10.90;99.90;;;;;;4439942;28;659764;-67
2022/04/22 13:55:16;;;;;;;32.53;16.63;;;9.80;99.90;;;;;;4397359;28;659126;-67
2022/04/22 13:58:03;;;;;;;34.07;15.97;;;9.60;99.90;;;;;;4440518;28;658923;-67
2022/04/22 14:00:50;;;;;;;34.00;17.50;;;9.30;99.90;;;;;;4425657;28;657838;-67
2022/04/22 14:03:38;;;;;;;35.83;17.67;;;9.10;99.90;;;;;;4445729;28;659227;-67
2022/04/22 14:06:25;;;;;;;36.73;18.77;;;9.00;99.90;;;;;;4428295;28;658265;-67
2022/04/22 14:09:14;;;;;;;34.23;18.17;;;9.10;99.90;;;;;;4447489;28;657983;-67
2022/04/22 14:12:01;;;;;;;39.43;18.47;;;9.00;99.90;;;;;;4422886;28;657681;-67
2022/04/22 14:14:49;;;;;;;34.30;16.77;;;8.90;99.90;;;;;;4444991;28;658225;-66
2022/04/22 14:17:36;;;;;;;34.53;16.10;;;8.80;99.90;;;;;;4425601;28;657391;-66
2022/04/22 14:20:24;;;;;;;34.13;16.60;;;8.70;99.90;;;;;;4441240;28;657876;-67
2022/04/22 14:23:11;;;;;;;31.53;15.13;;;8.70;99.90;;;;;;4424244;28;657369;-66
2022/04/22 14:26:00;;;;;;;31.60;15.57;;;8.60;99.90;;;;;;4441667;28;658507;-67
2022/04/22 14:28:47;;;;;;;25.47;13.57;;;8.70;99.90;;;;;;4420877;28;658492;-67
2022/04/22 14:31:34;;;;;;;23.87;12.10;;;8.50;99.90;;;;;;4442100;28;657548;-67
2022/04/22 14:34:21;;;;;;;20.35;11.27;;;8.50;99.90;;;;;;4426586;28;657668;-66
2022/04/22 14:37:08;;;;;;;23.83;12.47;;;8.40;99.90;;;;;;4443128;28;659017;-67
2022/04/22 14:39:56;;;;;;;32.07;15.77;;;8.40;99.90;;;;;;4423728;28;657500;-67
2022/04/22 14:42:45;;;;;;;28.88;13.68;;;8.50;99.90;;;;;;4440179;28;658818;-67
2022/04/22 14:45:32;;;;;;;30.87;14.03;;;8.50;99.90;;;;;;4425416;28;659564;-67
2022/04/22 14:48:19;;;;;;;29.30;14.17;;;8.60;99.90;;;;;;4444913;28;657798;-67
2022/04/22 14:51:06;;;;;;;33.73;15.57;;;8.60;99.90;;;;;;4419167;28;658453;-67
2022/04/22 14:53:54;;;;;;;30.37;14.40;;;8.70;99.90;;;;;;4426533;28;658248;-67
2022/04/22 14:56:41;;;;;;;24.30;12.43;;;8.70;99.90;;;;;;4424695;28;657639;-67
2022/04/22 14:59:29;;;;;;;26.10;12.83;;;8.60;99.90;;;;;;4432442;28;658636;-67
2022/04/22 15:02:17;;;;;;;22.03;12.03;;;8.60;99.90;;;;;;4422631;28;658007;-67
2022/04/22 15:05:05;;;;;;;24.53;13.27;;;8.60;99.90;;;;;;4444503;28;657864;-67
2022/04/22 15:07:52;;;;;;;23.35;11.13;;;8.50;99.90;;;;;;4426988;28;657919;-67
2022/04/22 15:10:39;;;;;;;21.97;11.03;;;8.50;99.90;;;;;;4447034;28;657006;-67
2022/04/22 15:13:27;;;;;;;19.67;10.67;;;8.50;99.90;;;;;;4429450;28;657367;-67
2022/04/22 15:16:16;;;;;;;23.00;10.37;;;8.40;99.90;;;;;;4450279;28;657251;-67
2022/04/22 15:25:13;;;;;;;20.93;11.70;;;8.30;99.90;;;;;;4417686;28;659155;-67
2022/04/22 15:28:01;;;;;;;19.03;9.83;;;8.40;99.90;;;;;;4429548;28;657674;-67
2022/04/22 15:31:12;;;;;;;22.37;10.43;;;8.40;99.90;;;;;;4451121;28;657961;-67
2022/04/22 15:34:00;;;;;;;13.83;7.83;;;8.50;99.90;;;;;;4423480;28;657551;-67
2022/04/22 15:36:48;;;;;;;11.00;6.50;;;8.50;99.90;;;;;;4423478;28;657614;-67
2022/04/22 15:39:35;;;;;;;12.00;6.90;;;8.50;99.90;;;;;;4440506;28;656751;-67
2022/04/22 15:42:22;;;;;;;8.77;6.17;;;8.40;99.90;;;;;;4429395;28;656781;-67